Accueil
METAR-TAF:

METAR-TAF

Aéroports :

Aéroport d'Oxford Kidlington

Oxford, Angleterre

latitude: 51-50-13N, longitude: 1-19-12W, altitude: 82 m

Observation

Le bulletin a été fait il y a 1 heure et 5 minutes, à 21:20 UTC
Vent 5 kt de ouest/sud-ouest
Température 2°C
Humidité 93%
Pression 989 hPa
Visibilité 10 km ou plus
Nuages épars à une hauteur de 3200 ft

METAR: EGTK 232120Z 24005KT 9999 SCT032 02/01 Q0989

Heure: 22:25 (22:25 UTC)

Prévision

Le bulletin a été fait il y a 2 heures et 25 minutes, à 20:00 UTC
Prévision valable du 23 à 21 UTC au 23 à 23 UTC
Vent 6 kt de sud/sud-ouest
Visibilité 10 km ou plus
Quelques nuages à une hauteur de 2500 ft

TAF: EGTK 232000Z 2321/2323 20006KT 9999 FEW025

Observations et prévisions météorologiques de plus de 4000 aéroports (messages METAR et TAF).

Les stations disponibles sont représentées par des disques jaunes et rouges sur la carte.

Passer la souris dessus pour voir le nom de la station.

Cliquer dessus pour voir les observations et prévisions météorologiques.

Pour changer de carte: cliquez sur les boutons verts avec une croix noire pour zoomer, sur le bouton vert avec un tiret pour effectuer un zoom arrière, ou sur les flèches vertes pour les cartes adjacentes.


METAR-TAF: